Meteorología y climatología de Navarra
Datos de la estación - Meteo Navarra

Estación de Bardenas (El Yugo) GN

Altitud 486 m.


Datos desde el 14/08/2019 hasta el 15/08/2019 en horario solar
Los datos son PROVISIONALES

Anterior Página 1 de 1 Siguiente Descargar: Formato para Excel 2000 o superior   Formato csv   Formato para OpenOffice Calc
Fecha Temperatura Humedad relativa Radiación global Insolación Precipitación Vel. viento 10 m Vel. viento 10 m Dir. viento 10 m
ºC % W/m² s l/m² m/s km/h º
14/08/2019 0:00 13.9 77 0.0 0 0.0 5.7 20.3 308
14/08/2019 0:10 14.0 76 0.0 0 0.0 5.2 18.8 311
14/08/2019 0:20 14.0 75 0.0 0 0.0 5.5 19.9 308
14/08/2019 0:30 14.0 75 0.0 0 0.0 5.3 19.1 310
14/08/2019 0:40 13.9 74 0.0 0 0.0 5.4 19.5 315
14/08/2019 0:50 14.1 73 0.0 0 0.0 5.0 18.0 315
14/08/2019 1:00 14.1 71 0.0 0 0.0 5.6 20.1 318
14/08/2019 1:10 14.4 68 0.0 0 0.0 5.2 18.6 318
14/08/2019 1:20 14.3 68 0.0 0 0.0 4.9 17.7 316
14/08/2019 1:30 14.2 68 0.0 0 0.0 4.5 16.1 317
14/08/2019 1:40 14.2 69 0.0 0 0.0 4.3 15.5 315
14/08/2019 1:50 14.1 69 0.0 0 0.0 4.1 14.6 317
14/08/2019 2:00 14.0 70 0.0 0 0.0 3.9 14.1 316
14/08/2019 2:10 13.8 68 0.0 0 0.0 3.7 13.5 319
14/08/2019 2:20 13.8 64 0.0 0 0.0 4.0 14.4 321
14/08/2019 2:30 13.9 66 0.0 0 0.0 4.3 15.3 320
14/08/2019 2:40 14.1 66 0.0 0 0.0 4.2 15.0 327
14/08/2019 2:50 14.0 64 0.0 0 0.0 4.0 14.4 328
14/08/2019 3:00 13.9 61 0.0 0 0.0 3.8 13.8 332
14/08/2019 3:10 13.8 59 0.0 0 0.0 4.1 14.8 322
14/08/2019 3:20 14.0 59 0.0 0 0.0 3.8 13.6 314
14/08/2019 3:30 14.0 60 0.0 0 0.0 3.5 12.6 311
14/08/2019 3:40 13.8 61 0.0 0 0.0 3.4 12.3 307
14/08/2019 3:50 13.6 62 0.0 0 0.0 3.8 13.8 304
14/08/2019 4:00 13.4 63 0.0 0 0.0 3.7 13.2 328
14/08/2019 4:10 13.3 67 0.0 0 0.0 4.1 14.7 325
14/08/2019 4:20 13.5 68 0.0 0 0.0 3.5 12.4 325
14/08/2019 4:30 13.6 68 0.0 0 0.0 3.3 11.8 324
14/08/2019 4:40 13.4 68 0.0 0 0.0 3.3 12.0 312
14/08/2019 4:50 13.2 68 0.0 0 0.0 3.6 12.8 319
14/08/2019 5:00 13.7 66 0.0 0 0.0 3.1 11.1 316
14/08/2019 5:10 13.7 67 0.0 0 0.0 3.8 13.7 315
14/08/2019 5:20 14.0 67 0.0 0 0.0 4.0 14.2 331
14/08/2019 5:30 13.2 67 9.4 0 0.0 3.9 13.9 347
14/08/2019 5:40 12.7 68 32.9 388 0.0 4.3 15.3 356
14/08/2019 5:50 12.8 70 45.2 298 0.0 3.8 13.5 356
14/08/2019 6:00 13.4 69 81.6 600 0.0 3.2 11.6 360
14/08/2019 6:10 14.1 65 106.1 600 0.0 2.2 8.0 327
14/08/2019 6:20 14.7 61 131.4 600 0.0 2.2 8.0 301
14/08/2019 6:30 15.1 62 161.7 600 0.0 2.5 9.0 332
14/08/2019 6:40 15.3 62 192.8 600 0.0 1.5 5.3 301
14/08/2019 6:50 15.5 62 223.1 600 0.0 1.5 5.3 285
14/08/2019 7:00 15.6 61 256.4 600 0.0 2.0 7.1 302
14/08/2019 7:10 16.1 58 289.7 600 0.0 1.6 5.9 275
14/08/2019 7:20 16.5 57 323.1 600 0.0 1.8 6.6 276
14/08/2019 7:30 17.0 54 355.9 600 0.0 1.7 6.2 287
14/08/2019 7:40 17.6 53 388.7 600 0.0 1.9 6.8 295
14/08/2019 7:50 17.8 51 421.2 600 0.0 2.0 7.3 291
14/08/2019 8:00 18.1 53 452.0 600 0.0 1.9 6.9 302
14/08/2019 8:10 18.6 52 483.2 600 0.0 2.3 8.4 306
14/08/2019 8:20 19.4 52 514.1 600 0.0 2.3 8.3 347
14/08/2019 8:30 19.6 49 544.5 600 0.0 2.7 9.8 336
14/08/2019 8:40 19.7 46 574.7 600 0.0 3.1 11.1 338
14/08/2019 8:50 20.1 44 603.1 600 0.0 2.9 10.4 353
14/08/2019 9:00 20.3 44 630.7 600 0.0 3.2 11.6 354
14/08/2019 9:10 20.8 43 658.6 600 0.0 3.3 11.8 344
14/08/2019 9:20 21.3 42 688.9 600 0.0 2.9 10.4 348
14/08/2019 9:30 22.3 40 712.1 600 0.0 3.3 12.0 358
14/08/2019 9:40 22.4 39 735.3 600 0.0 3.1 11.1 352
14/08/2019 9:50 23.0 37 757.3 600 0.0 2.6 9.5 352
14/08/2019 10:00 23.4 36 778.6 600 0.0 3.3 11.8 348
14/08/2019 10:10 23.9 33 797.9 600 0.0 2.3 8.2 339
14/08/2019 10:20 25.1 29 822.0 600 0.0 3.0 10.9 351
14/08/2019 10:30 25.3 29 838.0 600 0.0 3.1 11.1 350
14/08/2019 10:40 25.6 28 852.0 600 0.0 3.8 13.5 356
14/08/2019 10:50 25.7 27 868.0 600 0.0 3.6 13.1 356
14/08/2019 11:00 26.3 26 881.0 600 0.0 3.3 11.8 4
14/08/2019 11:10 27.0 24 901.0 600 0.0 2.9 10.6 1
14/08/2019 11:20 27.4 24 920.0 600 0.0 3.0 10.9 7
14/08/2019 11:30 27.5 24 951.0 600 0.0 3.2 11.6 359
14/08/2019 11:40 28.1 23 971.0 600 0.0 3.9 14.0 339
14/08/2019 11:50 28.3 23 982.0 600 0.0 4.1 14.6 332
14/08/2019 12:00 28.6 23 955.0 600 0.0 4.1 14.7 336
14/08/2019 12:10 28.3 24 959.0 600 0.0 3.9 14.1 331
14/08/2019 12:20 28.4 24 940.0 600 0.0 4.1 14.7 336
14/08/2019 12:30 29.1 23 932.0 600 0.0 3.7 13.4 345
14/08/2019 12:40 29.9 23 936.0 600 0.0 3.9 14.0 347
14/08/2019 12:50 30.0 22 914.0 600 0.0 3.8 13.8 327
14/08/2019 13:00 30.0 22 905.0 600 0.0 4.0 14.5 342
14/08/2019 13:10 29.7 22 897.0 600 0.0 3.7 13.5 344
14/08/2019 13:20 30.2 22 888.0 600 0.0 3.9 14.0 354
14/08/2019 13:30 30.5 22 876.0 600 0.0 4.2 14.9 348
14/08/2019 13:40 30.4 22 863.0 600 0.0 3.3 11.8 347
14/08/2019 13:50 30.5 22 850.0 600 0.0 4.1 14.9 0
14/08/2019 14:00 30.7 22 835.0 600 0.0 2.9 10.3 328
14/08/2019 14:10 30.9 22 817.0 600 0.0 2.4 8.6 344
14/08/2019 14:20 30.8 21 796.4 600 0.0 2.6 9.4 3
14/08/2019 14:30 31.1 21 777.4 600 0.0 3.0 10.7 348
14/08/2019 14:40 31.6 21 756.4 600 0.0 3.6 12.9 12
14/08/2019 14:50 32.3 20 735.5 600 0.0 2.1 7.4 11
14/08/2019 15:00 32.1 20 711.3 600 0.0 4.7 16.8 344
14/08/2019 15:10 32.0 21 688.6 600 0.0 3.2 11.7 359
14/08/2019 15:20 32.5 21 662.3 600 0.0 4.0 14.4 359
14/08/2019 15:30 32.3 21 635.9 600 0.0 5.2 18.5 3
14/08/2019 15:40 31.9 22 607.9 600 0.0 6.0 21.6 23
14/08/2019 15:50 31.7 23 578.9 600 0.0 5.5 19.7 14
14/08/2019 16:00 31.5 24 548.1 600 0.0 5.7 20.7 11
14/08/2019 16:10 31.1 25 517.1 600 0.0 7.9 28.3 19
14/08/2019 16:20 30.7 25 486.8 600 0.0 8.0 28.8 16
14/08/2019 16:30 30.2 27 456.0 600 0.0 8.2 29.4 15
14/08/2019 16:40 29.8 27 425.6 600 0.0 8.2 29.4 18
14/08/2019 16:50 29.6 28 393.4 600 0.0 8.5 30.4 18
14/08/2019 17:00 29.2 30 359.6 600 0.0 9.7 34.9 22
14/08/2019 17:10 28.8 31 328.7 600 0.0 9.1 32.6 17
14/08/2019 17:20 28.6 32 295.8 600 0.0 8.7 31.2 19
14/08/2019 17:30 28.5 33 260.5 600 0.0 8.8 31.6 22
14/08/2019 17:40 28.2 33 232.2 600 0.0 9.4 34.0 28
14/08/2019 17:50 27.8 34 194.6 598 0.0 8.7 31.1 24
14/08/2019 18:00 27.3 34 166.1 600 0.0 8.6 31.0 21
14/08/2019 18:10 27.0 35 132.7 600 0.0 7.8 28.0 24
14/08/2019 18:20 26.7 35 101.4 600 0.0 7.7 27.6 26
14/08/2019 18:30 26.3 37 78.1 600 0.0 7.7 27.8 25
14/08/2019 18:40 25.8 37 55.2 600 0.0 6.4 23.0 25
14/08/2019 18:50 25.2 39 30.8 250 0.0 7.2 25.9 16
14/08/2019 19:00 24.6 41 12.4 0 0.0 6.8 24.4 14
14/08/2019 19:10 24.0 43 0.0 0 0.0 6.0 21.7 12
14/08/2019 19:20 23.5 45 0.0 0 0.0 5.7 20.6 14
14/08/2019 19:30 23.1 46 0.0 0 0.0 5.8 20.8 9
14/08/2019 19:40 23.0 48 0.0 0 0.0 5.4 19.3 8
14/08/2019 19:50 22.7 49 0.0 0 0.0 5.5 19.9 7
14/08/2019 20:00 22.6 50 0.0 0 0.0 5.8 20.9 6
14/08/2019 20:10 22.5 52 0.0 0 0.0 5.8 20.8 9
14/08/2019 20:20 22.3 54 0.0 0 0.0 5.7 20.6 3
14/08/2019 20:30 22.1 56 0.0 0 0.0 5.0 18.0 2
14/08/2019 20:40 21.9 57 0.0 0 0.0 5.2 18.6 1
14/08/2019 20:50 21.6 59 0.0 0 0.0 5.8 20.9 359
14/08/2019 21:00 21.3 61 0.0 0 0.0 5.6 20.1 353
14/08/2019 21:10 21.0 62 0.0 0 0.0 5.5 19.9 355
14/08/2019 21:20 20.8 63 0.0 0 0.0 5.6 20.1 356
14/08/2019 21:30 20.5 64 0.0 0 0.0 5.5 19.9 349
14/08/2019 21:40 20.3 64 0.0 0 0.0 5.5 19.9 349
14/08/2019 21:50 20.0 66 0.0 0 0.0 5.2 18.7 350
14/08/2019 22:00 19.8 68 0.0 0 0.0 5.4 19.6 346
14/08/2019 22:10 19.7 69 0.0 0 0.0 5.3 19.0 349
14/08/2019 22:20 19.5 69 0.0 0 0.0 4.6 16.6 342
14/08/2019 22:30 19.3 70 0.0 0 0.0 5.0 17.9 347
14/08/2019 22:40 19.3 70 0.0 0 0.0 4.7 16.8 348
14/08/2019 22:50 19.2 70 0.0 0 0.0 4.5 16.1 346
14/08/2019 23:00 19.1 71 0.0 0 0.0 5.1 18.2 341
14/08/2019 23:10 19.1 72 0.0 0 0.0 5.2 18.6 337
14/08/2019 23:20 19.0 73 0.0 0 0.0 4.5 16.3 337
14/08/2019 23:30 18.9 73 0.0 0 0.0 5.0 18.1 336
14/08/2019 23:40 18.8 74 0.0 0 0.0 4.8 17.4 340
14/08/2019 23:50 18.8 74 0.0 0 0.0 4.4 15.8 336
Anterior Página 1 de 1 Siguiente

NOTA: Tipo de datos según el color:
   - Valores diarios o 10 minutos correctos
   - Valores diarios calculados a partir de un número de datos 10 minutos menor que 144 y mayor que 120, o de un número de datos semihorarios menor que 48 y mayor que 40 (caso de las estaciones de Riegos de Navarra y del MARM)
   - Valores diez minutos estimados


Contacto        Enlaces        Aviso legal